LIBQ  Monte Scuro Airport

Add Bookmark

Italy

Status
Operational
Latitude Longitude
39° 19' 12" N 16° 22' 47" E
39.320000 16.380000
Local (DST + 2) UTC (GMT + 1)
Sep 23, 2014 02:17 Sep 23, 2014 00:17
Sunrise-Sunset Local UTC
Begin Civil Twilight 06:15 04:15
Sunrise 06:42 04:42
Sunset 06:51 16:51
End Civil Twilight 07:18 17:18

Current Weather

METAR Observed VFR
LIBQ 222355Z 26015KT CAVOK 14/11 Q1017 Mon, Sep 22, 2014 @ 23:55 UTC
(22 Minutes ago)
Visual Flight Rules
Wind Visibility Clouds Conditions
260° at 15 knots (28 kph) 10 km or more
  • Clear skies
  • No significant weather
Temperatures Readings Precipitation
Current Temp 14°C (57°F)
Dewpoint 11°C (52°F)
Humidity 82%
Altimeter 30.03"Hg
Sea Level Pressure 1017mb
Field Elevation 5643.04'
None Recorded

Additional weather within a 92.6km radius of LIBQ

Map ICAO Location
LICA 47.6km S (195°)
LIBC 70.2km E (121°)

24 Hour Weather History

Loading
-

24 Hour Weather Graphs

Loading
-

CheckWX.com is intended as a tool to help pilots better visualize weather data. It is not intended as a substitute for an official weather briefing obtained from a Flight Service Station. CheckWX.com does not meet the FAA requirements for an official pre-flight weather briefing. Therefore, it's important that pilots still call and obtain an official FSS pre-flight weather briefing.